Jenkins, Texas
Current Conditions -  °F | °C
As of 9:55 AM on Sunday 23 Nov 2014 (Local Time) from KOSA Reporting Station
Overcast Overcast  
Wind Chill: 63°   Ceiling: 700
Heat Index: 63°   Visibility: 10mi
Dew Point: 61°   Wind: 10mph
Humidity: 94%   Direction: 200°SSW
Pressure: 29.56"   Gusts: NA
Location:  33.0336°N, 94.7384°W
Report Text: KOSA 231555Z AUTO 20009KT 10SM BKN007 OVC020 17/16 A2956 RMK AO1 T01730163
Loading
Personal Weather Stations






























Interactive Weather Map New forecast layout! Learn more

10-Day Weather Forecast

Advertisements
Track Severe Weather on mobile